Time;durP1;ratioP1;P1;durP2;ratioP2;P2;SDS_P1;SDS_P2;PMS_P1;PMS_P2;Temp;Humidity;BMP_temperature;BMP_pressure;BME280_temperature;BME280_humidity;BME280_pressure;Samples;Min_cycle;Max_cycle;Signal;HPM_P1;HPM_P2
2022/10/29 00:26:16;;;;;;;9.32;4.20;;;17.20;99.90;;;;;;6244617;23;20027;-96
2022/10/29 00:28:59;;;;;;;10.88;4.07;;;17.20;99.90;;;;;;6243746;23;20000;-95
2022/10/29 00:31:25;;;;;;;14.98;4.38;;;17.20;99.90;;;;;;6226721;23;20012;-95
2022/10/29 00:33:59;;;;;;;29.10;4.18;;;17.20;99.90;;;;;;6198892;23;20017;-94
2022/10/29 00:36:29;;;;;;;12.43;5.10;;;17.10;99.90;;;;;;6225321;23;19997;-94
2022/10/29 00:38:58;;;;;;;11.88;4.10;;;17.10;99.90;;;;;;6222739;23;20012;-95
2022/10/29 00:41:27;;;;;;;11.50;4.35;;;17.10;99.90;;;;;;6226285;23;20032;-95
2022/10/29 00:44:19;;;;;;;16.52;4.03;;;17.10;99.90;;;;;;6221742;23;20000;-96
2022/10/29 00:46:58;;;;;;;15.65;4.65;;;17.00;99.90;;;;;;6223549;23;20011;-96
2022/10/29 00:49:25;;;;;;;13.75;4.43;;;17.00;99.90;;;;;;6219812;23;20009;-95
2022/10/29 00:51:52;;;;;;;16.00;5.13;;;17.00;99.90;;;;;;6218031;23;20020;-96
2022/10/29 00:54:18;;;;;;;12.43;4.50;;;17.00;99.90;;;;;;6192315;23;20016;-94
2022/10/29 00:56:53;;;;;;;11.52;4.68;;;16.90;99.90;;;;;;6218854;23;19996;-93
2022/10/29 00:59:46;;;;;;;14.00;5.20;;;16.90;99.90;;;;;;6223573;23;20012;-96
2022/10/29 01:02:11;;;;;;;13.32;4.85;;;16.90;99.90;;;;;;6205597;23;20005;-95
2022/10/29 01:04:41;;;;;;;12.18;5.20;;;16.80;99.90;;;;;;6220169;23;20027;-96
2022/10/29 01:07:08;;;;;;;14.90;4.63;;;16.80;99.90;;;;;;6224559;23;20236;-95
2022/10/29 01:09:34;;;;;;;10.65;4.38;;;16.80;99.90;;;;;;6221668;23;20011;-95
2022/10/29 01:12:27;;;;;;;14.80;5.03;;;16.80;99.90;;;;;;6212250;23;20000;-96
2022/10/29 01:15:25;;;;;;;16.52;5.32;;;16.80;99.90;;;;;;6222111;23;20112;-96
2022/10/29 01:18:21;;;;;;;11.65;4.70;;;16.70;99.90;;;;;;6223686;23;20035;-96
2022/10/29 01:21:05;;;;;;;20.40;6.15;;;16.70;99.90;;;;;;6227054;23;20079;-96
2022/10/29 01:23:59;;;;;;;14.38;5.47;;;16.70;99.90;;;;;;6219813;23;20008;-94
2022/10/29 01:26:47;;;;;;;16.40;5.78;;;16.60;99.90;;;;;;6217964;23;20024;-94
2022/10/29 01:29:31;;;;;;;14.98;4.75;;;16.60;99.90;;;;;;6218360;23;20001;-95
2022/10/29 01:32:02;;;;;;;13.43;4.80;;;16.60;99.90;;;;;;6223085;23;20010;-94
2022/10/29 01:34:56;;;;;;;10.82;4.05;;;16.50;99.90;;;;;;6222780;23;20012;-95
2022/10/29 01:37:39;;;;;;;11.77;4.22;;;16.50;99.90;;;;;;6225956;23;20036;-95
2022/10/29 01:40:23;;;;;;;8.55;3.10;;;16.50;99.90;;;;;;6220202;23;20091;-95
2022/10/29 01:43:16;;;;;;;10.10;2.72;;;16.40;99.90;;;;;;6220828;23;20009;-95
2022/10/29 01:45:48;;;;;;;8.07;3.10;;;16.40;99.90;;;;;;6226388;23;20039;-96
2022/10/29 01:48:23;;;;;;;7.78;2.88;;;16.40;99.90;;;;;;6226239;23;20003;-96
2022/10/29 01:50:53;;;;;;;6.82;2.92;;;16.40;99.90;;;;;;6224980;23;20087;-96
2022/10/29 01:53:20;;;;;;;6.35;2.70;;;16.40;99.90;;;;;;6222773;23;20012;-96
2022/10/29 01:55:51;;;;;;;7.07;2.67;;;16.30;99.90;;;;;;6222916;23;20011;-96
2022/10/29 01:58:18;;;;;;;;;;;16.30;99.90;;;;;;6227708;23;19997;-95
2022/10/29 02:00:47;;;;;;;10.40;3.70;;;16.30;99.90;;;;;;6233149;23;19900;-96
2022/10/29 02:03:41;;;;;;;11.32;4.43;;;16.30;99.90;;;;;;6230747;23;20012;-95
2022/10/29 02:06:46;;;;;;;12.38;4.50;;;16.30;99.90;;;;;;6227314;23;20004;-96
2022/10/29 02:09:56;;;;;;;12.23;4.18;;;16.20;99.90;;;;;;6233944;23;20000;-95
2022/10/29 02:12:28;;;;;;;10.40;4.10;;;16.20;99.90;;;;;;6224296;23;20009;-96
2022/10/29 02:15:12;;;;;;;11.73;3.22;;;16.20;99.90;;;;;;6223827;23;20339;-96
2022/10/29 02:17:40;;;;;;;8.68;3.88;;;16.10;99.90;;;;;;6218820;23;20027;-95
2022/10/29 02:20:15;;;;;;;14.00;5.10;;;16.10;99.90;;;;;;6231004;23;20007;-96
2022/10/29 02:22:44;;;;;;;9.60;4.35;;;16.10;99.90;;;;;;6235368;23;20060;-96
2022/10/29 02:25:20;;;;;;;13.38;4.88;;;16.00;99.90;;;;;;6221783;23;20435;-95
2022/10/29 02:27:49;;;;;;;11.80;4.20;;;16.00;99.90;;;;;;6224237;23;20036;-95
2022/10/29 02:30:20;;;;;;;14.35;4.75;;;16.00;99.90;;;;;;6231799;23;20001;-96
2022/10/29 02:32:56;;;;;;;11.65;4.38;;;16.00;99.90;;;;;;6227781;23;20022;-96
2022/10/29 02:35:27;;;;;;;9.75;4.28;;;16.00;99.90;;;;;;6231606;23;20005;-95
2022/10/29 02:37:59;;;;;;;10.27;4.13;;;16.00;99.90;;;;;;6230951;23;20022;-95
2022/10/29 02:40:30;;;;;;;9.73;4.53;;;15.90;99.90;;;;;;6228901;23;19996;-95
2022/10/29 02:42:56;;;;;;;10.88;4.63;;;15.90;99.90;;;;;;6228874;23;20426;-95
2022/10/29 02:45:24;;;;;;;12.02;4.65;;;15.90;99.90;;;;;;6230919;23;20001;-96
2022/10/29 02:48:01;;;;;;;13.18;5.13;;;15.90;99.90;;;;;;6237292;23;19992;-96
2022/10/29 02:50:35;;;;;;;11.30;4.93;;;15.80;99.90;;;;;;6210363;23;20011;-95
2022/10/29 05:50:39;;;;;;;15.88;10.27;;;15.30;99.90;;;;;;6185629;23;20021;-95
2022/10/29 05:53:08;;;;;;;21.08;10.20;;;15.30;99.90;;;;;;6163951;23;20013;-96
2022/10/29 05:55:40;;;;;;;16.83;10.95;;;15.30;99.90;;;;;;6169722;23;19993;-94
2022/10/29 05:58:11;;;;;;;16.92;10.30;;;15.30;99.90;;;;;;6171182;23;20005;-95
2022/10/29 06:00:39;;;;;;;12.70;9.98;;;15.30;99.90;;;;;;6162998;23;20024;-96
2022/10/29 06:03:20;;;;;;;15.35;10.10;;;15.30;99.90;;;;;;6168075;23;20008;-95
2022/10/29 06:05:46;;;;;;;13.80;9.90;;;15.30;99.90;;;;;;6190907;23;20032;-95
2022/10/29 06:08:12;;;;;;;15.82;9.93;;;15.20;99.90;;;;;;6163202;23;19997;-96
2022/10/29 06:10:39;;;;;;;17.58;9.45;;;15.20;99.90;;;;;;6189304;23;20004;-96
2022/10/29 06:13:16;;;;;;;14.10;9.40;;;15.20;99.90;;;;;;6165263;23;20458;-96
2022/10/29 06:15:45;;;;;;;14.75;9.10;;;15.20;99.90;;;;;;6167377;23;19997;-96
2022/10/29 06:18:14;;;;;;;12.25;9.00;;;15.20;99.90;;;;;;6193129;23;19997;-96
2022/10/29 06:20:40;;;;;;;13.27;9.10;;;15.20;99.90;;;;;;6174831;23;20001;-96
2022/10/29 06:23:06;;;;;;;13.55;8.70;;;15.20;99.90;;;;;;6141206;23;20017;-94
2022/10/29 06:25:32;;;;;;;14.18;9.43;;;15.20;99.90;;;;;;6166038;23;20009;-95
2022/10/29 06:28:05;;;;;;;15.98;8.52;;;15.20;99.90;;;;;;6162494;23;20370;-95
2022/10/29 06:30:32;;;;;;;13.90;8.20;;;15.20;99.90;;;;;;6166109;23;20004;-94
2022/10/29 06:32:59;;;;;;;15.10;8.98;;;15.20;99.90;;;;;;6162034;23;20072;-94
2022/10/29 06:35:26;;;;;;;12.90;8.30;;;15.20;99.90;;;;;;6187992;23;20005;-95
2022/10/29 06:37:51;;;;;;;13.57;8.40;;;15.20;99.90;;;;;;6137952;23;20005;-93
2022/10/29 06:40:17;;;;;;;14.23;8.85;;;15.20;99.90;;;;;;6169144;23;20001;-94
2022/10/29 06:42:43;;;;;;;11.52;8.68;;;15.20;99.90;;;;;;6171491;23;20004;-95
2022/10/29 06:45:10;;;;;;;13.50;8.63;;;15.20;99.90;;;;;;6170736;23;20008;-95
2022/10/29 06:47:40;;;;;;;11.85;8.77;;;15.30;99.90;;;;;;6169048;23;20527;-93
2022/10/29 06:50:08;;;;;;;16.30;8.88;;;15.30;99.90;;;;;;6187342;23;20013;-95
2022/10/29 06:52:34;;;;;;;13.02;8.68;;;15.30;99.90;;;;;;6194286;23;20000;-95
2022/10/29 06:55:01;;;;;;;15.85;9.40;;;15.30;99.90;;;;;;6194137;23;20058;-95
2022/10/29 06:57:27;;;;;;;12.55;9.13;;;15.30;99.90;;;;;;6198816;23;20027;-95
2022/10/29 06:59:53;;;;;;;12.93;9.13;;;15.30;99.90;;;;;;6203137;23;20087;-95
2022/10/29 07:02:20;;;;;;;16.17;9.77;;;15.30;99.90;;;;;;6198808;23;20024;-95
2022/10/29 07:04:46;;;;;;;20.65;9.60;;;15.30;99.90;;;;;;6195170;23;20378;-95
2022/10/29 07:07:12;;;;;;;16.17;9.80;;;15.30;99.90;;;;;;6195182;23;20027;-95
2022/10/29 07:09:39;;;;;;;16.63;9.65;;;15.30;99.90;;;;;;6196371;23;20091;-95
2022/10/29 07:12:05;;;;;;;19.10;9.85;;;15.30;99.90;;;;;;6194230;23;20016;-95
2022/10/29 07:14:34;;;;;;;16.58;10.23;;;15.30;99.90;;;;;;6194235;23;20071;-94
2022/10/29 07:17:00;;;;;;;16.10;9.95;;;15.30;99.90;;;;;;6195329;23;20012;-96
2022/10/29 07:19:26;;;;;;;15.32;9.88;;;15.30;99.90;;;;;;6195854;23;20000;-95
2022/10/29 07:21:51;;;;;;;17.52;11.52;;;15.40;99.90;;;;;;6194632;23;20319;-95
2022/10/29 07:24:17;;;;;;;16.02;10.40;;;15.40;99.90;;;;;;6195584;23;20000;-96
2022/10/29 07:26:43;;;;;;;16.77;11.25;;;15.40;99.90;;;;;;6197622;23;20005;-95
2022/10/29 07:29:09;;;;;;;14.88;11.50;;;15.40;99.90;;;;;;6202768;23;19997;-95
2022/10/29 07:31:35;;;;;;;15.90;11.05;;;15.40;99.90;;;;;;6219586;23;19998;-95
2022/10/29 07:34:13;;;;;;;20.73;11.40;;;15.40;99.90;;;;;;6219324;23;20004;-94
2022/10/29 07:36:44;;;;;;;19.33;12.43;;;15.40;99.90;;;;;;6194316;23;19992;-96
2022/10/29 07:39:30;;;;;;;23.67;12.15;;;15.50;99.90;;;;;;6219151;23;19988;-96
2022/10/29 09:04:33;;;;;;;20.98;13.45;;;16.40;99.90;;;;;;6241945;22;20020;-88
2022/10/29 09:07:12;;;;;;;23.17;14.60;;;16.40;99.90;;;;;;6220814;23;20329;-88
2022/10/29 09:09:41;;;;;;;22.35;13.20;;;16.50;99.90;;;;;;6221027;23;20054;-88
2022/10/29 09:15:52;;;;;;;22.40;13.00;;;16.50;99.90;;;;;;6247711;23;20023;-90
2022/10/29 09:18:36;;;;;;;23.98;13.73;;;16.60;99.90;;;;;;6248167;23;20318;-91
2022/10/29 09:21:22;;;;;;;19.58;13.35;;;16.60;99.90;;;;;;6224117;23;20004;-91
2022/10/29 09:24:07;;;;;;;20.83;13.25;;;16.60;99.90;;;;;;6250613;23;20000;-91
2022/10/29 09:26:42;;;;;;;26.17;16.10;;;16.70;99.90;;;;;;6248114;23;20425;-88
2022/10/29 09:29:35;;;;;;;20.95;14.38;;;16.70;99.90;;;;;;6221566;23;20492;-90
2022/10/29 09:32:07;;;;;;;27.80;14.63;;;16.80;99.90;;;;;;6247969;23;20000;-89
2022/10/29 09:34:54;;;;;;;28.45;16.23;;;16.80;99.90;;;;;;6221643;23;20035;-89
2022/10/29 09:37:48;;;;;;;24.63;15.27;;;16.80;99.90;;;;;;6249130;23;20414;-91
2022/10/29 09:43:46;;;;;;;23.38;15.05;;;16.90;99.90;;;;;;6247612;23;20058;-90
2022/10/29 09:46:19;;;;;;;23.67;15.60;;;16.90;99.90;;;;;;6221661;23;20429;-90
2022/10/29 09:52:44;;;;;;;28.40;15.95;;;17.00;99.90;;;;;;6247303;23;20092;-90
2022/10/29 09:58:40;;;;;;;25.95;14.40;;;17.10;99.90;;;;;;6156112;23;20016;-88
2022/10/29 10:01:06;;;;;;;23.05;15.32;;;17.10;99.90;;;;;;6155353;23;20014;-89
2022/10/29 10:03:47;;;;;;;27.42;16.10;;;17.20;99.90;;;;;;6129708;23;20090;-89
2022/10/29 10:09:22;;;;;;;24.75;15.77;;;17.20;99.90;;;;;;6155231;23;19948;-89
2022/10/29 10:15:14;;;;;;;23.63;14.40;;;17.30;99.90;;;;;;6155097;23;20024;-94
2022/10/29 10:17:59;;;;;;;30.45;17.35;;;17.30;99.90;;;;;;6135779;23;20010;-93
2022/10/29 10:20:29;;;;;;;29.63;17.30;;;17.30;99.90;;;;;;6139776;23;20001;-93
2022/10/29 10:22:55;;;;;;;28.13;15.73;;;17.40;99.90;;;;;;6135402;23;20093;-94
2022/10/29 10:25:33;;;;;;;24.58;15.68;;;17.40;99.90;;;;;;6145552;23;20052;-94
2022/10/29 10:28:03;;;;;;;27.30;15.73;;;17.40;99.90;;;;;;6133192;23;20005;-94
2022/10/29 10:30:29;;;;;;;29.23;15.48;;;17.50;99.90;;;;;;6197165;23;20005;-94
2022/10/29 10:33:11;;;;;;;30.10;18.05;;;17.50;99.90;;;;;;6170944;23;20068;-94
2022/10/29 10:35:37;;;;;;;26.50;15.75;;;17.50;99.90;;;;;;6247171;23;20000;-93
2022/10/29 10:38:08;;;;;;;24.38;15.27;;;17.60;99.90;;;;;;6195815;23;20062;-93
2022/10/29 10:40:34;;;;;;;24.27;15.32;;;17.60;99.90;;;;;;6247098;23;19996;-89
2022/10/29 10:43:01;;;;;;;21.33;13.93;;;17.70;99.90;;;;;;6195416;23;20039;-89
2022/10/29 10:45:36;;;;;;;25.17;14.63;;;17.70;99.90;;;;;;6219831;23;20011;-89
2022/10/29 10:48:08;;;;;;;26.10;15.07;;;17.70;99.90;;;;;;6195609;23;20030;-88
2022/10/29 10:50:35;;;;;;;20.23;13.38;;;17.80;99.90;;;;;;6220001;23;20004;-88
2022/10/29 10:53:16;;;;;;;21.55;13.52;;;17.80;99.90;;;;;;6246908;23;20000;-89
2022/10/29 10:55:56;;;;;;;31.98;13.95;;;18.00;99.90;;;;;;6220396;23;20003;-89
2022/10/29 10:58:32;;;;;;;23.95;12.23;;;18.00;99.90;;;;;;6221312;23;20001;-89
2022/10/29 11:01:12;;;;;;;22.73;12.57;;;18.10;99.90;;;;;;6221321;23;20003;-90
2022/10/29 11:03:47;;;;;;;18.35;12.50;;;18.10;99.90;;;;;;6220989;22;20018;-91
2022/10/29 11:06:33;;;;;;;22.75;13.98;;;18.20;99.90;;;;;;6221410;23;20004;-90
2022/10/29 11:09:11;;;;;;;20.70;13.43;;;18.30;99.90;;;;;;6220495;23;20079;-88
2022/10/29 11:11:59;;;;;;;23.17;12.88;;;18.40;99.90;;;;;;6258458;23;19992;-90
2022/10/29 11:15:05;;;;;;;18.58;11.45;;;18.50;99.90;;;;;;6247722;22;20014;-92
2022/10/29 11:20:43;;;;;;;19.98;11.88;;;18.60;99.90;;;;;;6256658;22;20373;-75
2022/10/29 11:23:33;;;;;;;23.93;11.57;;;18.70;99.90;;;;;;6247663;23;20004;-75
2022/10/29 11:26:06;;;;;;;22.08;10.88;;;18.70;99.90;;;;;;6248087;23;20226;-75
2022/10/29 11:28:39;;;;;;;17.38;10.55;;;18.80;99.90;;;;;;6246911;23;20003;-76
2022/10/29 11:31:21;;;;;;;14.90;8.80;;;18.80;99.90;;;;;;6246282;23;20000;-76
2022/10/29 11:33:46;;;;;;;22.27;10.93;;;18.90;99.90;;;;;;6217848;23;20315;-77
2022/10/29 11:36:24;;;;;;;20.90;9.20;;;19.00;99.90;;;;;;6245566;23;20003;-75
2022/10/29 11:38:52;;;;;;;16.30;8.52;;;19.00;99.90;;;;;;6245289;23;19996;-75
2022/10/29 11:41:43;;;;;;;18.38;8.65;;;19.10;99.90;;;;;;6246402;23;20007;-76
2022/10/29 11:44:12;;;;;;;16.10;8.80;;;19.20;99.90;;;;;;6220255;23;20000;-76
2022/10/29 11:46:45;;;;;;;16.45;8.35;;;19.30;99.90;;;;;;6245989;23;19996;-84
2022/10/29 11:49:34;;;;;;;17.58;7.88;;;19.30;99.90;;;;;;6247242;23;20007;-75
2022/10/29 11:52:14;;;;;;;23.25;8.82;;;19.40;99.90;;;;;;6246323;23;20376;-75
2022/10/29 11:55:01;;;;;;;17.30;7.40;;;19.50;99.90;;;;;;6247516;23;20027;-75
2022/10/29 11:57:43;;;;;;;14.00;6.72;;;19.60;99.90;;;;;;6247692;23;20345;-74
2022/10/29 12:00:30;;;;;;;19.58;8.35;;;19.60;99.90;;;;;;6247388;23;19996;-82
2022/10/29 12:03:05;;;;;;;18.27;8.32;;;19.70;99.90;;;;;;6247381;23;20006;-81
2022/10/29 12:05:39;;;;;;;14.32;7.97;;;19.70;99.90;;;;;;6247355;22;20012;-82
2022/10/29 12:08:10;;;;;;;19.00;7.72;;;19.80;99.90;;;;;;6246996;23;20003;-82
2022/10/29 12:11:01;;;;;;;20.45;7.68;;;19.90;99.90;;;;;;6219235;23;20058;-81
2022/10/29 12:13:39;;;;;;;13.77;6.68;;;19.90;99.90;;;;;;6211878;23;20434;-82
2022/10/29 12:16:42;;;;;;;15.82;7.55;;;19.90;99.90;;;;;;6247244;23;20000;-81
2022/10/29 12:19:36;;;;;;;20.55;6.65;;;20.00;99.90;;;;;;6193334;23;20004;-81
2022/10/29 12:22:22;;;;;;;14.38;6.47;;;20.00;99.90;;;;;;6219270;23;20023;-81
2022/10/29 12:25:36;;;;;;;16.13;6.13;;;20.10;99.90;;;;;;6219888;23;20062;-82
2022/10/29 12:28:08;;;;;;;15.80;6.25;;;20.10;99.90;;;;;;6220581;23;20296;-88
2022/10/29 12:30:41;;;;;;;13.63;5.82;;;20.20;99.90;;;;;;6221392;23;20004;-88
2022/10/29 12:33:18;;;;;;;17.88;5.88;;;20.20;99.90;;;;;;6221363;23;20012;-89
2022/10/29 12:36:14;;;;;;;11.65;5.70;;;20.20;99.90;;;;;;6220378;23;20449;-91
2022/10/29 12:38:55;;;;;;;18.58;6.38;;;20.30;99.90;;;;;;6221006;23;19996;-89
2022/10/29 12:41:31;;;;;;;22.65;6.05;;;20.40;99.90;;;;;;6248192;23;20023;-88
2022/10/29 12:44:42;;;;;;;15.70;6.00;;;20.50;99.90;;;;;;6221503;23;20066;-90
2022/10/29 12:47:27;;;;;;;13.23;4.65;;;20.60;99.90;;;;;;6252516;23;20039;-94
2022/10/29 12:50:45;;;;;;;16.98;5.85;;;20.70;99.90;;;;;;6233529;23;20000;-95
2022/10/29 12:53:16;;;;;;;15.73;5.47;;;20.80;99.90;;;;;;6161715;23;20012;-92
2022/10/29 12:55:45;;;;;;;17.00;5.43;;;20.90;99.90;;;;;;6248415;23;19996;-92
2022/10/29 12:58:44;;;;;;;11.60;4.75;;;21.00;99.90;;;;;;6223488;23;20090;-95
2022/10/29 13:01:32;;;;;;;15.65;5.72;;;21.10;99.90;;;;;;6182898;23;20031;-91
2022/10/29 13:04:01;;;;;;;12.13;4.85;;;21.20;99.90;;;;;;6220549;23;20016;-92
2022/10/29 13:06:42;;;;;;;14.05;5.30;;;21.20;99.90;;;;;;6221069;23;20004;-91
2022/10/29 13:09:18;;;;;;;;;;;21.30;99.90;;;;;;6221347;23;20011;-90
2022/10/29 13:11:49;;;;;;;12.60;5.60;;;21.30;99.90;;;;;;6220840;23;19975;-90
2022/10/29 13:14:27;;;;;;;18.10;5.97;;;21.40;99.90;;;;;;6220391;23;20004;-88
2022/10/29 13:16:53;;;;;;;15.98;5.90;;;21.50;99.90;;;;;;6220161;23;20007;-88
2022/10/29 13:19:34;;;;;;;11.75;5.13;;;21.50;99.90;;;;;;6170158;23;20011;-88
2022/10/29 13:22:22;;;;;;;16.42;5.38;;;21.60;99.90;;;;;;6219815;23;20419;-89
2022/10/29 13:25:26;;;;;;;15.30;5.68;;;21.60;99.90;;;;;;6145527;23;20011;-87
2022/10/29 13:27:53;;;;;;;13.60;5.80;;;21.70;99.90;;;;;;6219894;23;20090;-93
2022/10/29 13:30:25;;;;;;;12.38;5.78;;;21.70;99.90;;;;;;6195580;23;20062;-88
2022/10/29 13:32:52;;;;;;;15.50;5.53;;;21.70;99.90;;;;;;6246321;23;20007;-88
2022/10/29 13:35:18;;;;;;;11.45;5.00;;;21.80;99.90;;;;;;6248945;23;19996;-88
2022/10/29 13:37:51;;;;;;;14.82;5.05;;;21.90;99.90;;;;;;6220466;23;20050;-89
2022/10/29 13:40:25;;;;;;;14.10;4.90;;;22.00;99.90;;;;;;6247514;23;19996;-88
2022/10/29 13:43:00;;;;;;;17.30;5.20;;;22.00;99.90;;;;;;6219363;23;20430;-89
2022/10/29 13:45:27;;;;;;;15.43;4.70;;;22.10;99.90;;;;;;6246991;23;19997;-89
2022/10/29 13:48:01;;;;;;;13.48;5.20;;;22.20;99.90;;;;;;6246433;23;20028;-87
2022/10/29 13:50:27;;;;;;;14.38;4.82;;;22.20;99.90;;;;;;6246473;23;20059;-88
2022/10/29 13:52:55;;;;;;;11.57;4.57;;;22.30;99.90;;;;;;6220388;23;20000;-89
2022/10/29 13:55:23;;;;;;;18.35;5.00;;;22.30;99.90;;;;;;6219753;23;20138;-88
2022/10/29 13:58:00;;;;;;;12.70;4.57;;;22.30;99.90;;;;;;6219709;23;20014;-88
2022/10/29 14:00:26;;;;;;;11.23;4.40;;;22.40;99.90;;;;;;6220253;23;20076;-92
2022/10/29 14:02:58;;;;;;;15.40;4.65;;;22.40;99.90;;;;;;6219560;23;20057;-85
2022/10/29 14:05:47;;;;;;;15.48;4.68;;;22.40;99.90;;;;;;6219368;23;20079;-85
2022/10/29 14:08:13;;;;;;;14.38;5.57;;;22.50;99.90;;;;;;6218063;23;20010;-85
2022/10/29 14:10:38;;;;;;;13.32;4.93;;;22.40;99.90;;;;;;6219644;23;20317;-85
2022/10/29 14:13:29;;;;;;;15.40;5.00;;;22.40;99.90;;;;;;6245968;23;20008;-86
2022/10/29 14:16:08;;;;;;;13.23;4.70;;;22.40;99.90;;;;;;6246111;23;20000;-85
2022/10/29 14:18:52;;;;;;;15.63;5.82;;;22.50;99.90;;;;;;6219362;23;20008;-86
2022/10/29 14:21:27;;;;;;;13.85;5.40;;;22.40;99.90;;;;;;6246695;23;20000;-86
2022/10/29 14:24:01;;;;;;;17.48;5.55;;;22.50;99.90;;;;;;6219015;23;20322;-81
2022/10/29 14:26:33;;;;;;;17.25;5.60;;;22.50;99.90;;;;;;6218935;23;20110;-88
2022/10/29 14:29:17;;;;;;;15.55;4.93;;;22.40;99.90;;;;;;6245571;23;20000;-88
2022/10/29 14:31:43;;;;;;;16.35;4.75;;;22.50;99.90;;;;;;6245950;23;20015;-89
2022/10/29 14:34:23;;;;;;;16.75;5.15;;;22.40;99.90;;;;;;6169478;23;20039;-90
2022/10/29 14:36:51;;;;;;;18.25;5.63;;;22.40;99.90;;;;;;6246412;23;20004;-89
2022/10/29 14:39:37;;;;;;;19.08;5.82;;;22.50;99.90;;;;;;6219893;23;20042;-89
2022/10/29 14:42:07;;;;;;;22.15;5.65;;;22.50;99.90;;;;;;6219673;23;20000;-88
2022/10/29 14:44:34;;;;;;;15.10;6.10;;;22.50;99.90;;;;;;6247134;23;20004;-89
2022/10/29 14:47:04;;;;;;;13.15;5.28;;;22.40;99.90;;;;;;6194759;23;20079;-89
2022/10/29 14:49:33;;;;;;;19.33;5.55;;;22.40;99.90;;;;;;6220438;23;20370;-89
2022/10/29 14:52:04;;;;;;;16.27;5.40;;;22.50;99.90;;;;;;6246373;23;20071;-88
2022/10/29 14:54:35;;;;;;;13.70;5.40;;;22.40;99.90;;;;;;6237177;22;20007;-90
2022/10/29 14:57:03;;;;;;;;;;;22.40;99.90;;;;;;6248036;22;19984;-90
2022/10/29 14:59:31;;;;;;;14.23;5.35;;;22.50;99.90;;;;;;6247903;22;19907;-88
2022/10/29 15:01:59;;;;;;;17.15;6.30;;;22.40;99.90;;;;;;6222407;22;19996;-90
2022/10/29 15:04:27;;;;;;;17.05;5.57;;;22.40;99.90;;;;;;6247698;23;20007;-88
2022/10/29 15:07:14;;;;;;;13.65;5.13;;;22.50;99.90;;;;;;6247729;23;19991;-95
2022/10/29 15:09:41;;;;;;;15.35;5.40;;;22.50;99.90;;;;;;6233726;23;20011;-89
2022/10/29 15:12:31;;;;;;;12.75;5.18;;;22.40;99.90;;;;;;6224510;23;19996;-88
2022/10/29 15:15:21;;;;;;;13.77;5.03;;;22.50;99.90;;;;;;6225622;23;20015;-89
2022/10/29 15:17:52;;;;;;;14.87;5.23;;;22.40;99.90;;;;;;6222893;23;20011;-89
2022/10/29 15:20:42;;;;;;;15.38;5.50;;;22.40;99.90;;;;;;6251295;23;19997;-89
2022/10/29 15:23:28;;;;;;;16.13;5.95;;;22.50;99.90;;;;;;6228377;23;20091;-89
2022/10/29 15:26:06;;;;;;;18.13;6.38;;;22.40;99.90;;;;;;6223743;23;20004;-89
2022/10/29 15:28:42;;;;;;;14.35;5.60;;;22.50;99.90;;;;;;6229033;23;20000;-89
2022/10/29 15:31:28;;;;;;;19.95;6.80;;;22.40;99.90;;;;;;6230538;23;20086;-89
2022/10/29 15:33:54;;;;;;;17.23;8.32;;;22.40;99.90;;;;;;6223954;23;20012;-93
2022/10/29 15:36:20;;;;;;;16.25;7.18;;;22.40;99.90;;;;;;6197087;23;20054;-89
2022/10/29 15:38:46;;;;;;;16.70;6.70;;;22.40;99.90;;;;;;6221573;23;20000;-89
2022/10/29 15:41:17;;;;;;;14.32;5.95;;;22.40;99.90;;;;;;6248258;23;20023;-89
2022/10/29 15:43:56;;;;;;;15.48;5.97;;;22.40;99.90;;;;;;6222054;23;20475;-89
2022/10/29 15:46:23;;;;;;;13.45;5.90;;;22.40;99.90;;;;;;6222385;23;20000;-89
2022/10/29 15:48:49;;;;;;;25.08;6.47;;;22.40;99.90;;;;;;6248452;23;20031;-89
2022/10/29 15:51:15;;;;;;;18.08;6.90;;;22.40;99.90;;;;;;6221771;23;20283;-89
2022/10/29 15:53:41;;;;;;;16.27;7.07;;;22.40;99.90;;;;;;6196813;23;20043;-88
2022/10/29 15:56:11;;;;;;;17.80;7.13;;;22.30;99.90;;;;;;6220932;23;20004;-89
2022/10/29 15:59:10;;;;;;;19.02;7.13;;;22.30;99.90;;;;;;6200249;23;20072;-96
2022/10/29 16:01:39;;;;;;;12.75;6.53;;;22.30;99.90;;;;;;6227797;23;20418;-96
2022/10/29 16:04:05;;;;;;;13.68;6.68;;;22.30;99.90;;;;;;6250697;22;20087;-88
2022/10/29 16:06:31;;;;;;;14.65;7.15;;;22.30;99.90;;;;;;6223914;23;20035;-96
2022/10/29 16:09:02;;;;;;;21.30;6.32;;;22.20;99.90;;;;;;6223362;23;20434;-92
2022/10/29 16:11:34;;;;;;;13.82;6.28;;;22.20;99.90;;;;;;6201343;23;20434;-96
2022/10/29 16:14:12;;;;;;;22.70;6.80;;;22.20;99.90;;;;;;6222601;23;20483;-94
2022/10/29 16:16:43;;;;;;;17.05;9.07;;;22.20;99.90;;;;;;6225914;23;20007;-95
2022/10/29 17:52:39;;;;;;;;;;;;;;;;;;;;;
2022/10/29 17:55:54;;;;;;;;;;;;;;;;;;;;;
2022/10/29 18:02:05;;;;;;;;;;;;;;;;;;;;;
2022/10/29 18:04:31;;;;;;;15.63;7.85;;;21.20;99.90;;;;;;6218269;23;20109;-89
2022/10/29 18:07:50;;;;;;;18.35;7.65;;;21.10;99.90;;;;;;6167466;23;20000;-95
2022/10/29 18:10:26;;;;;;;19.25;8.23;;;21.10;99.90;;;;;;6187938;23;20013;-95
2022/10/29 18:13:01;;;;;;;15.55;7.60;;;21.10;99.90;;;;;;6197701;23;20427;-96
2022/10/29 19:31:35;;;;;;;12.65;6.35;;;20.20;99.90;;;;;;6243579;22;20466;-93
2022/10/29 19:34:05;;;;;;;17.05;6.85;;;20.10;99.90;;;;;;6219815;23;20087;-94
2022/10/29 19:36:51;;;;;;;11.73;6.20;;;20.00;99.90;;;;;;6223491;23;20000;-93
2022/10/29 19:39:24;;;;;;;16.52;6.93;;;20.10;99.90;;;;;;6222477;23;20016;-91
2022/10/29 19:41:50;;;;;;;12.15;7.28;;;20.00;99.90;;;;;;6225330;23;19996;-92
2022/10/29 19:44:15;;;;;;;19.50;7.68;;;20.00;99.90;;;;;;6209962;23;20031;-93
2022/10/29 19:46:46;;;;;;;19.98;8.05;;;20.00;99.90;;;;;;6222077;23;20000;-94
2022/10/29 19:49:14;;;;;;;11.82;6.95;;;20.00;99.90;;;;;;6223149;23;20035;-92
2022/10/29 19:51:44;;;;;;;11.65;6.25;;;20.00;99.90;;;;;;6198178;23;20004;-93
2022/10/29 19:54:13;;;;;;;21.48;8.25;;;20.00;99.90;;;;;;6199600;23;20375;-95
2022/10/29 19:56:43;;;;;;;15.43;6.57;;;19.90;99.90;;;;;;6228204;23;19996;-95
2022/10/29 19:59:09;;;;;;;;;;;19.90;99.90;;;;;;6179233;23;20026;-85
2022/10/29 20:01:37;;;;;;;17.45;7.22;;;19.90;99.90;;;;;;6220236;23;19903;-85
2022/10/29 20:04:03;;;;;;;15.70;7.03;;;19.90;99.90;;;;;;6221202;23;20004;-87
2022/10/29 20:06:29;;;;;;;15.07;7.25;;;19.80;99.90;;;;;;6220457;23;20087;-88
2022/10/29 20:08:55;;;;;;;17.42;7.63;;;19.80;99.90;;;;;;6220999;23;20110;-87
2022/10/29 20:11:20;;;;;;;19.98;6.75;;;19.80;99.90;;;;;;6195772;23;20024;-88
2022/10/29 20:13:49;;;;;;;16.52;6.88;;;19.80;99.90;;;;;;6220694;23;20505;-88
2022/10/29 20:16:18;;;;;;;17.88;6.60;;;19.80;99.90;;;;;;6220561;23;20066;-88
2022/10/29 20:18:45;;;;;;;15.20;6.47;;;19.80;99.90;;;;;;6220403;23;20004;-89
2022/10/29 20:21:12;;;;;;;15.25;7.18;;;19.80;99.90;;;;;;6221851;23;20336;-88
2022/10/29 20:23:41;;;;;;;15.10;7.45;;;19.70;99.90;;;;;;6198980;23;20023;-88
2022/10/29 20:26:07;;;;;;;17.55;6.90;;;19.70;99.90;;;;;;6222935;23;20019;-89
2022/10/29 20:28:36;;;;;;;14.68;6.85;;;19.70;99.90;;;;;;6197396;23;20000;-88
2022/10/29 20:31:17;;;;;;;16.55;7.75;;;19.70;99.90;;;;;;6221837;23;20012;-89
2022/10/29 20:33:54;;;;;;;15.52;7.07;;;19.70;99.90;;;;;;6249292;23;20079;-89
2022/10/29 20:36:20;;;;;;;16.88;7.88;;;19.60;99.90;;;;;;6221163;23;20000;-89
2022/10/29 20:38:51;;;;;;;18.27;9.00;;;19.60;99.90;;;;;;6230330;23;20004;-95
2022/10/29 20:41:17;;;;;;;;;;;19.60;99.90;;;;;;6231524;23;20012;-95
2022/10/29 20:43:58;;;;;;;18.35;7.22;;;19.60;99.90;;;;;;6226399;23;19900;-96
2022/10/29 20:46:56;;;;;;;15.40;7.57;;;19.50;99.90;;;;;;6230985;23;20449;-94
2022/10/29 20:49:28;;;;;;;17.35;8.05;;;19.50;99.90;;;;;;6265416;23;20005;-95
2022/10/29 20:54:50;;;;;;;14.18;6.80;;;19.40;99.90;;;;;;6250283;23;20027;-95
2022/10/29 20:57:24;;;;;;;18.45;8.43;;;19.40;99.90;;;;;;6262109;23;19996;-95
2022/10/29 20:59:53;;;;;;;19.23;8.57;;;19.40;99.90;;;;;;6205685;23;20106;-95
2022/10/29 21:02:24;;;;;;;15.18;7.28;;;19.30;99.90;;;;;;6229059;23;20028;-95
2022/10/29 21:05:10;;;;;;;;;;;;;;;;;;;;;
2022/10/29 21:07:40;;;;;;;16.45;7.43;;;19.30;99.90;;;;;;6233918;23;20028;-95
2022/10/29 21:10:15;;;;;;;15.75;7.43;;;19.30;99.90;;;;;;6227865;23;20028;-95
2022/10/29 21:12:48;;;;;;;22.65;7.85;;;19.20;99.90;;;;;;6197647;23;20012;-95
2022/10/29 21:15:16;;;;;;;17.35;8.40;;;19.20;99.90;;;;;;6221661;23;20004;-94
2022/10/29 21:17:44;;;;;;;13.63;7.30;;;19.20;99.90;;;;;;6222193;23;20000;-95
2022/10/29 21:20:15;;;;;;;18.45;7.63;;;19.20;99.90;;;;;;6223431;23;19996;-95
2022/10/29 21:22:58;;;;;;;16.73;6.88;;;19.20;99.90;;;;;;6206322;23;20008;-95
2022/10/29 21:25:23;;;;;;;16.95;6.93;;;19.20;99.90;;;;;;6177791;23;20108;-85